GHOST37 EGYM-EGYM
Flight info
| Callsign | GHOST37 |
|---|---|
| Flight time | N/A |
| Altitude | 14000 |
| Route | DCT 5253N00103W DCT 5233N00230W 5231N00319W 5238N00344W 5242N00341W 5244N00345W 5244N00350W 5241N00353W 5236N00351W 5237N00344W 5242N00341W 5244N00345W 5245N00351W 5255N00336W 5303N00343W 5305N00348W 5311N00404W DCT VYL DCT 5322N00432W 5350N00358W 5411N00302W 5421N00256W 5436N00307W 5440N00322W 5432N00325W 5431N00317W 5427N00316W 5424N00323W 5413N00320W 5411N00303W 5421N00256W 5433N00256W 5440N00245W 5446N00115W DCT 5246N00032E DCT |
| Aircraft | F35/M-SDE3RV/LB1 |
Departure
| Time | 2026-04-26 19:34 |
|---|---|
| Airport | RAF Marham (EGYM) |
Arrival
| Time | N/A |
|---|---|
| Airport | RAF Marham (EGYM) |
| Time | Latitude | Longitude | Altitude | Speed | Heading |
|---|---|---|---|---|---|
| 2026-04-26 19:31 | 52.63939 | 0.53560 | 83 ft | 9 kts | 16° |
| 2026-04-26 19:31 | 52.63945 | 0.53563 | 83 ft | 0 kts | 18° |
| 2026-04-26 19:31 | 52.63953 | 0.53569 | 84 ft | 6 kts | 21° |
| 2026-04-26 19:31 | 52.64016 | 0.53588 | 86 ft | 7 kts | 307° |
| 2026-04-26 19:32 | 52.64030 | 0.53531 | 85 ft | 5 kts | 294° |
| 2026-04-26 19:32 | 52.64071 | 0.53452 | 84 ft | 16 kts | 324° |
| 2026-04-26 19:32 | 52.64137 | 0.53386 | 85 ft | 7 kts | 8° |
| 2026-04-26 19:32 | 52.64158 | 0.53424 | 84 ft | 4 kts | 50° |
| 2026-04-26 19:33 | 52.64163 | 0.53433 | 84 ft | 0 kts | 51° |
| 2026-04-26 19:33 | 52.64271 | 0.53692 | 86 ft | 112 kts | 56° |
| 2026-04-26 19:33 | 52.65092 | 0.55643 | 308 ft | 288 kts | 56° |
| 2026-04-26 19:34 | 52.66653 | 0.58382 | 3123 ft | 365 kts | 30° |
| 2026-04-26 19:34 | 52.69200 | 0.59466 | 5813 ft | 395 kts | 356° |
| 2026-04-26 19:34 | 52.71562 | 0.57782 | 5846 ft | 371 kts | 298° |
| 2026-04-26 19:34 | 52.71612 | 0.53655 | 7308 ft | 365 kts | 256° |
| 2026-04-26 19:35 | 52.70772 | 0.49634 | 10116 ft | 376 kts | 247° |
| 2026-04-26 19:35 | 52.69604 | 0.45516 | 11640 ft | 401 kts | 242° |
| 2026-04-26 19:35 | 52.68202 | 0.41584 | 12354 ft | 403 kts | 243° |
| 2026-04-26 19:35 | 52.67420 | 0.37185 | 13007 ft | 406 kts | 266° |
| 2026-04-26 19:36 | 52.67705 | 0.32552 | 13674 ft | 411 kts | 282° |
| 2026-04-26 19:36 | 52.68209 | 0.29466 | 13987 ft | 414 kts | 285° |
| 2026-04-26 19:36 | 52.69372 | 0.23470 | 14212 ft | 415 kts | 287° |
| 2026-04-26 19:36 | 52.70300 | 0.18973 | 14258 ft | 415 kts | 287° |
| 2026-04-26 19:37 | 52.71102 | 0.14413 | 14271 ft | 413 kts | 281° |
| 2026-04-26 19:37 | 52.71706 | 0.09785 | 14285 ft | 414 kts | 281° |
| 2026-04-26 19:37 | 52.72417 | 0.05186 | 14286 ft | 413 kts | 283° |
| 2026-04-26 19:37 | 52.73125 | 0.00585 | 14288 ft | 414 kts | 282° |
| 2026-04-26 19:38 | 52.73790 | -0.04035 | 14285 ft | 415 kts | 282° |
| 2026-04-26 19:38 | 52.74480 | -0.08645 | 14279 ft | 414 kts | 282° |
| 2026-04-26 19:38 | 52.75171 | -0.13272 | 14271 ft | 414 kts | 282° |
| 2026-04-26 19:38 | 52.75847 | -0.17895 | 14285 ft | 415 kts | 282° |
| 2026-04-26 19:39 | 52.76529 | -0.22518 | 14301 ft | 414 kts | 282° |
| 2026-04-26 19:39 | 52.77212 | -0.27176 | 14299 ft | 417 kts | 282° |
| 2026-04-26 19:39 | 52.77895 | -0.31832 | 14300 ft | 418 kts | 282° |
| 2026-04-26 19:39 | 52.78573 | -0.36480 | 14293 ft | 417 kts | 282° |
| 2026-04-26 19:40 | 52.79251 | -0.41146 | 14293 ft | 417 kts | 282° |
| 2026-04-26 19:40 | 52.79927 | -0.45808 | 14299 ft | 418 kts | 282° |
| 2026-04-26 19:40 | 52.80601 | -0.50471 | 14299 ft | 416 kts | 282° |
| 2026-04-26 19:40 | 52.81263 | -0.55064 | 14302 ft | 418 kts | 282° |
| 2026-04-26 19:41 | 52.81936 | -0.59746 | 14298 ft | 417 kts | 282° |
| 2026-04-26 19:41 | 52.82605 | -0.64415 | 14298 ft | 417 kts | 282° |
| 2026-04-26 19:41 | 52.83272 | -0.69088 | 14295 ft | 417 kts | 282° |
| 2026-04-26 19:41 | 52.83713 | -0.72182 | 14298 ft | 418 kts | 282° |
| 2026-04-26 19:42 | 52.84600 | -0.78426 | 14297 ft | 417 kts | 282° |
| 2026-04-26 19:42 | 52.85262 | -0.83105 | 14297 ft | 417 kts | 282° |
| 2026-04-26 19:42 | 52.85921 | -0.87779 | 14296 ft | 417 kts | 282° |
| 2026-04-26 19:42 | 52.86579 | -0.92456 | 14294 ft | 417 kts | 282° |
| 2026-04-26 19:43 | 52.87233 | -0.97115 | 14297 ft | 418 kts | 281° |
| 2026-04-26 19:43 | 52.87533 | -1.01861 | 14235 ft | 413 kts | 264° |
| 2026-04-26 19:43 | 52.87103 | -1.06507 | 14232 ft | 414 kts | 258° |
| 2026-04-26 19:43 | 52.86470 | -1.11148 | 14263 ft | 413 kts | 256° |
| 2026-04-26 19:44 | 52.85771 | -1.15740 | 14278 ft | 414 kts | 255° |
| 2026-04-26 19:44 | 52.82902 | -1.29190 | 14293 ft | 413 kts | 250° |
| 2026-04-26 19:45 | 52.81943 | -1.33670 | 14301 ft | 414 kts | 250° |
| 2026-04-26 19:45 | 52.80918 | -1.38101 | 14301 ft | 413 kts | 248° |
| 2026-04-26 19:45 | 52.79806 | -1.42551 | 14300 ft | 414 kts | 246° |
| 2026-04-26 19:45 | 52.78811 | -1.46919 | 14295 ft | 413 kts | 251° |
| 2026-04-26 19:46 | 52.77936 | -1.51460 | 14290 ft | 413 kts | 251° |
| 2026-04-26 19:46 | 52.76902 | -1.55881 | 14285 ft | 414 kts | 248° |
| 2026-04-26 19:46 | 52.75867 | -1.60309 | 14289 ft | 412 kts | 250° |
| 2026-04-26 19:46 | 52.74887 | -1.64759 | 14292 ft | 413 kts | 250° |
| 2026-04-26 19:47 | 52.73859 | -1.69187 | 14298 ft | 414 kts | 249° |
| 2026-04-26 19:47 | 52.73177 | -1.72128 | 14270 ft | 414 kts | 249° |
| 2026-04-26 19:47 | 52.71826 | -1.78070 | 14274 ft | 414 kts | 249° |
| 2026-04-26 19:47 | 52.70802 | -1.82500 | 14295 ft | 413 kts | 249° |
| 2026-04-26 19:48 | 52.69778 | -1.86927 | 14294 ft | 414 kts | 249° |
| 2026-04-26 19:48 | 52.68758 | -1.91355 | 14291 ft | 414 kts | 249° |
| 2026-04-26 19:48 | 52.67730 | -1.95790 | 14293 ft | 413 kts | 249° |
| 2026-04-26 19:48 | 52.66704 | -2.00204 | 14297 ft | 414 kts | 249° |
| 2026-04-26 19:49 | 52.65674 | -2.04645 | 14292 ft | 417 kts | 249° |
| 2026-04-26 19:49 | 52.64627 | -2.09128 | 14295 ft | 421 kts | 249° |
| 2026-04-26 19:49 | 52.63606 | -2.13498 | 14296 ft | 427 kts | 249° |
| 2026-04-26 19:49 | 52.62528 | -2.18111 | 14285 ft | 432 kts | 249° |
| 2026-04-26 19:50 | 52.61440 | -2.22746 | 14291 ft | 436 kts | 249° |
| 2026-04-26 19:50 | 52.60338 | -2.27430 | 14290 ft | 443 kts | 249° |
| 2026-04-26 19:50 | 52.59215 | -2.32200 | 14290 ft | 451 kts | 249° |
| 2026-04-26 19:50 | 52.58068 | -2.37058 | 14295 ft | 460 kts | 249° |
| 2026-04-26 19:51 | 52.56896 | -2.42009 | 14289 ft | 470 kts | 249° |
| 2026-04-26 19:51 | 52.55866 | -2.47178 | 14222 ft | 483 kts | 256° |
| 2026-04-26 19:51 | 52.55127 | -2.52713 | 13518 ft | 509 kts | 259° |
| 2026-04-26 19:51 | 52.54567 | -2.58581 | 12687 ft | 530 kts | 265° |
| 2026-04-26 19:52 | 52.54419 | -2.64725 | 11890 ft | 546 kts | 268° |
| 2026-04-26 19:52 | 52.54225 | -2.71023 | 11116 ft | 557 kts | 264° |
| 2026-04-26 19:52 | 52.53920 | -2.77407 | 10381 ft | 563 kts | 266° |
| 2026-04-26 19:52 | 52.53706 | -2.83849 | 9610 ft | 566 kts | 265° |
| 2026-04-26 19:53 | 52.53418 | -2.90308 | 8831 ft | 570 kts | 265° |
| 2026-04-26 19:53 | 52.53163 | -2.96749 | 8079 ft | 575 kts | 266° |
| 2026-04-26 19:53 | 52.52898 | -3.03179 | 7355 ft | 526 kts | 265° |
| 2026-04-26 19:53 | 52.52658 | -3.08734 | 6637 ft | 455 kts | 266° |
| 2026-04-26 19:54 | 52.52453 | -3.13657 | 5881 ft | 412 kts | 266° |
| 2026-04-26 19:54 | 52.52320 | -3.18197 | 5134 ft | 384 kts | 269° |
| 2026-04-26 19:54 | 52.52437 | -3.22443 | 4388 ft | 363 kts | 275° |
| 2026-04-26 19:54 | 52.52791 | -3.26666 | 3646 ft | 442 kts | 279° |
| 2026-04-26 19:55 | 52.53291 | -3.31947 | 3275 ft | 471 kts | 275° |
| 2026-04-26 19:55 | 52.53468 | -3.37218 | 2141 ft | 456 kts | 268° |
| 2026-04-26 19:55 | 52.53220 | -3.42374 | 1559 ft | 449 kts | 262° |
| 2026-04-26 19:55 | 52.53673 | -3.47294 | 1486 ft | 458 kts | 314° |
| 2026-04-26 19:56 | 52.55322 | -3.51546 | 928 ft | 450 kts | 285° |
| 2026-04-26 19:56 | 52.57326 | -3.55423 | 1216 ft | 459 kts | 322° |
| 2026-04-26 19:56 | 52.59619 | -3.58978 | 1111 ft | 452 kts | 306° |
| 2026-04-26 19:56 | 52.60992 | -3.63633 | 954 ft | 454 kts | 291° |
| 2026-04-26 19:57 | 52.61314 | -3.68723 | 811 ft | 451 kts | 277° |
| 2026-04-26 19:57 | 52.62612 | -3.73288 | 835 ft | 439 kts | 331° |
| 2026-04-26 19:57 | 52.65187 | -3.71185 | 647 ft | 444 kts | 20° |
| 2026-04-26 19:57 | 52.68223 | -3.69788 | 565 ft | 451 kts | 16° |
| 2026-04-26 19:58 | 52.71203 | -3.68433 | 813 ft | 441 kts | 345° |
| 2026-04-26 19:58 | 52.73166 | -3.72278 | 1119 ft | 457 kts | 282° |
| 2026-04-26 19:58 | 52.73670 | -3.77201 | 1513 ft | 462 kts | 304° |
| 2026-04-26 19:58 | 52.73431 | -3.81965 | 1110 ft | 449 kts | 219° |
| 2026-04-26 19:59 | 52.70649 | -3.84410 | 1153 ft | 447 kts | 223° |
| 2026-04-26 19:59 | 52.68364 | -3.87890 | 930 ft | 455 kts | 192° |
| 2026-04-26 19:59 | 52.65893 | -3.85174 | 866 ft | 452 kts | 131° |
| 2026-04-26 19:59 | 52.62943 | -3.84803 | 805 ft | 456 kts | 186° |
| 2026-04-26 20:00 | 52.60123 | -3.83540 | 1034 ft | 424 kts | 99° |
| 2026-04-26 20:00 | 52.61375 | -3.78953 | 445 ft | 448 kts | 63° |
| 2026-04-26 20:00 | 52.62729 | -3.74395 | 381 ft | 448 kts | 54° |
| 2026-04-26 20:00 | 52.65183 | -3.71340 | 467 ft | 453 kts | 17° |
| 2026-04-26 20:01 | 52.68182 | -3.69867 | 499 ft | 449 kts | 19° |
| 2026-04-26 20:01 | 52.71200 | -3.68563 | 866 ft | 443 kts | 341° |
| 2026-04-26 20:01 | 52.73262 | -3.72223 | 1008 ft | 454 kts | 283° |
| 2026-04-26 20:01 | 52.73588 | -3.77245 | 1483 ft | 456 kts | 295° |
| 2026-04-26 20:02 | 52.75074 | -3.81539 | 1373 ft | 460 kts | 346° |
| 2026-04-26 20:02 | 52.77653 | -3.80396 | 1457 ft | 467 kts | 70° |
| 2026-04-26 20:02 | 52.78772 | -3.75495 | 916 ft | 447 kts | 50° |
| 2026-04-26 20:02 | 52.79566 | -3.74337 | 1138 ft | 459 kts | 37° |
| 2026-04-26 20:03 | 52.83792 | -3.69182 | 987 ft | 454 kts | 39° |
| 2026-04-26 20:03 | 52.86201 | -3.65813 | 774 ft | 453 kts | 40° |
| 2026-04-26 20:03 | 52.88536 | -3.62368 | 669 ft | 451 kts | 44° |
| 2026-04-26 20:03 | 52.90855 | -3.58951 | 969 ft | 435 kts | 3° |
| 2026-04-26 20:04 | 52.93212 | -3.62090 | 1424 ft | 460 kts | 301° |
| 2026-04-26 20:04 | 52.94637 | -3.66794 | 1415 ft | 457 kts | 288° |
| 2026-04-26 20:04 | 52.95752 | -3.71602 | 1289 ft | 450 kts | 325° |
| 2026-04-26 20:04 | 52.98178 | -3.75003 | 1360 ft | 455 kts | 317° |
| 2026-04-26 20:05 | 53.00048 | -3.75882 | 1544 ft | 466 kts | 20° |
| 2026-04-26 20:05 | 53.03003 | -3.74169 | 1917 ft | 460 kts | 345° |
| 2026-04-26 20:05 | 53.05985 | -3.76230 | 1922 ft | 462 kts | 336° |
| 2026-04-26 20:05 | 53.06831 | -3.81666 | 1023 ft | 447 kts | 268° |
| 2026-04-26 20:06 | 53.07183 | -3.86673 | 1435 ft | 445 kts | 322° |
| 2026-04-26 20:06 | 53.09855 | -3.89421 | 1010 ft | 458 kts | 314° |
| 2026-04-26 20:06 | 53.11001 | -3.92308 | 1590 ft | 463 kts | 310° |
| 2026-04-26 20:06 | 53.12403 | -3.96872 | 1308 ft | 458 kts | 279° |
| 2026-04-26 20:07 | 53.12435 | -4.02009 | 1364 ft | 445 kts | 308° |
| 2026-04-26 20:07 | 53.15231 | -4.04456 | 856 ft | 457 kts | 337° |
| 2026-04-26 20:07 | 53.17918 | -4.07004 | 1212 ft | 444 kts | 298° |
| 2026-04-26 20:07 | 53.18823 | -4.11956 | 3323 ft | 468 kts | 276° |
| 2026-04-26 20:08 | 53.19184 | -4.16955 | 3010 ft | 399 kts | 283° |
| 2026-04-26 20:08 | 53.19769 | -4.21146 | 3228 ft | 347 kts | 276° |
| 2026-04-26 20:08 | 53.19897 | -4.24950 | 3100 ft | 315 kts | 270° |
| 2026-04-26 20:08 | 53.19829 | -4.28472 | 2786 ft | 293 kts | 266° |
| 2026-04-26 20:09 | 53.19828 | -4.31749 | 2423 ft | 265 kts | 289° |
| 2026-04-26 20:09 | 53.20780 | -4.34140 | 2400 ft | 235 kts | 307° |
| 2026-04-26 20:09 | 53.21843 | -4.36334 | 2411 ft | 262 kts | 307° |
| 2026-04-26 20:09 | 53.23090 | -4.38881 | 2272 ft | 307 kts | 308° |
| 2026-04-26 20:10 | 53.24440 | -4.41672 | 1960 ft | 299 kts | 307° |
| 2026-04-26 20:10 | 53.25714 | -4.44277 | 1565 ft | 282 kts | 307° |
| 2026-04-26 20:10 | 53.26922 | -4.46764 | 1170 ft | 269 kts | 307° |
| 2026-04-26 20:10 | 53.28033 | -4.49208 | 809 ft | 263 kts | 303° |
| 2026-04-26 20:11 | 53.28492 | -4.51817 | 1195 ft | 215 kts | 261° |
| 2026-04-26 20:11 | 53.27953 | -4.53953 | 1173 ft | 173 kts | 232° |
| 2026-04-26 20:11 | 53.27267 | -4.54861 | 957 ft | 92 kts | 195° |
| 2026-04-26 20:12 | 53.26340 | -4.55011 | 510 ft | 80 kts | 185° |
| 2026-04-26 20:12 | 53.25834 | -4.55043 | 312 ft | 65 kts | 169° |
| 2026-04-26 20:12 | 53.25534 | -4.54790 | 237 ft | 53 kts | 145° |
| 2026-04-26 20:12 | 53.25406 | -4.54596 | 224 ft | 0 kts | 140° |
| 2026-04-26 20:13 | 53.25380 | -4.54559 | 225 ft | 5 kts | 140° |
| 2026-04-26 20:13 | 53.25344 | -4.54453 | 225 ft | 17 kts | 105° |
| 2026-04-26 20:13 | 53.25305 | -4.54230 | 226 ft | 21 kts | 106° |
| 2026-04-26 20:13 | 53.25266 | -4.54010 | 227 ft | 13 kts | 107° |
| 2026-04-26 20:14 | 53.25277 | -4.53897 | 227 ft | 10 kts | 70° |
| 2026-04-26 20:14 | 53.25322 | -4.53863 | 228 ft | 1 kts | 6° |
| 2026-04-26 20:14 | 53.25327 | -4.53869 | 180 ft | 1 kts | 7° |
| 2026-04-26 20:14 | 53.25332 | -4.53876 | 121 ft | 1 kts | 7° |
| 2026-04-26 20:15 | 53.25335 | -4.53865 | 105 ft | 1 kts | 7° |
| 2026-04-26 20:15 | 53.25339 | -4.53863 | 68 ft | 1 kts | 7° |
| 2026-04-26 20:15 | 53.25343 | -4.53860 | 36 ft | 1 kts | 7° |
| 2026-04-26 20:15 | 53.25345 | -4.53860 | 29 ft | 0 kts | 6° |
| 2026-04-26 20:16 | 53.25346 | -4.53858 | 29 ft | 1 kts | 36° |
| 2026-04-26 20:16 | 53.25328 | -4.53843 | 30 ft | 10 kts | 195° |
| 2026-04-26 20:16 | 53.25298 | -4.53744 | 32 ft | 14 kts | 93° |
| 2026-04-26 20:16 | 53.25353 | -4.53699 | 32 ft | 10 kts | 6° |
| 2026-04-26 20:17 | 53.25384 | -4.53639 | 32 ft | 6 kts | 88° |
| 2026-04-26 20:17 | 53.25353 | -4.53603 | 32 ft | 7 kts | 233° |
| 2026-04-26 20:17 | 53.25349 | -4.53640 | 32 ft | 3 kts | 266° |
| 2026-04-26 20:17 | 53.25349 | -4.53644 | 32 ft | 0 kts | 272° |